createdAt,value
2019-01-20T00:00:50.289Z,980.449
2019-01-20T00:02:50.632Z,980.438
2019-01-20T00:04:50.573Z,980.438
2019-01-20T00:06:50.239Z,980.434
2019-01-20T00:08:49.691Z,980.433
2019-01-20T00:10:49.999Z,980.424
2019-01-20T00:12:50.299Z,980.417
2019-01-20T00:14:50.535Z,980.412
2019-01-20T00:16:50.221Z,980.395
2019-01-20T00:18:49.635Z,980.391
2019-01-20T00:20:49.844Z,980.379
2019-01-20T00:22:50.241Z,980.391
2019-01-20T00:24:49.766Z,980.373
2019-01-20T00:26:50.523Z,980.359
2019-01-20T00:28:49.934Z,980.360
2019-01-20T00:30:50.264Z,980.353
2019-01-20T00:32:50.525Z,980.345
2019-01-20T00:34:50.383Z,980.366
2019-01-20T00:36:50.129Z,980.362
2019-01-20T00:38:50.500Z,980.382
2019-01-20T00:40:49.867Z,980.390
2019-01-20T00:42:50.394Z,980.390
2019-01-20T00:44:49.796Z,980.408
2019-01-20T00:46:50.450Z,980.411
2019-01-20T00:48:49.698Z,980.418
2019-01-20T00:50:50.105Z,980.427
2019-01-20T00:52:50.450Z,980.418
2019-01-20T00:54:49.671Z,980.397
2019-01-20T00:56:50.272Z,980.405
2019-01-20T00:58:50.531Z,980.410
2019-01-20T01:00:49.930Z,980.411
2019-01-20T01:02:50.401Z,980.411
2019-01-20T01:04:50.304Z,980.423
2019-01-20T01:06:49.911Z,980.425
2019-01-20T01:08:50.353Z,980.440
2019-01-20T01:10:49.671Z,980.418
2019-01-20T01:12:50.039Z,980.420
2019-01-20T01:14:50.498Z,980.410
2019-01-20T01:16:50.035Z,980.417
2019-01-20T01:18:50.299Z,980.417
2019-01-20T01:20:50.529Z,980.417
2019-01-20T01:22:49.911Z,980.431
2019-01-20T01:24:50.132Z,980.446
2019-01-20T01:26:49.635Z,980.446
2019-01-20T01:28:49.913Z,980.448
2019-01-20T01:30:50.143Z,980.460
2019-01-20T01:32:50.497Z,980.466
2019-01-20T01:34:50.408Z,980.462
2019-01-20T01:36:49.835Z,980.455
2019-01-20T01:38:50.038Z,980.443
2019-01-20T01:40:50.246Z,980.433
2019-01-20T01:42:49.641Z,980.424
2019-01-20T01:44:49.923Z,980.419
2019-01-20T01:46:49.664Z,980.411
2019-01-20T01:48:50.107Z,980.386
2019-01-20T01:50:50.618Z,980.365
2019-01-20T01:52:49.961Z,980.365
2019-01-20T01:54:50.228Z,980.341
2019-01-20T01:56:49.800Z,980.344
2019-01-20T01:58:50.143Z,980.337
2019-01-20T02:00:50.415Z,980.323
2019-01-20T02:02:49.945Z,980.311
2019-01-20T02:04:50.072Z,980.297
2019-01-20T02:06:49.640Z,980.289
2019-01-20T02:08:50.019Z,980.296
2019-01-20T02:10:50.269Z,980.297
2019-01-20T02:12:50.553Z,980.302
2019-01-20T02:14:50.209Z,980.302
2019-01-20T02:16:49.878Z,980.316
2019-01-20T02:18:50.190Z,980.328
2019-01-20T02:20:50.485Z,980.332
2019-01-20T02:22:49.717Z,980.333
2019-01-20T02:24:50.125Z,980.346
2019-01-20T02:26:49.642Z,980.364
2019-01-20T02:28:50.076Z,980.353
2019-01-20T02:30:50.500Z,980.343
2019-01-20T02:32:49.880Z,980.335
2019-01-20T02:34:49.877Z,980.320
2019-01-20T02:36:50.480Z,980.320
2019-01-20T02:38:49.842Z,980.322
2019-01-20T02:40:50.109Z,980.318
2019-01-20T02:42:50.514Z,980.330
2019-01-20T02:44:49.848Z,980.337
2019-01-20T02:46:50.551Z,980.339
2019-01-20T02:48:49.906Z,980.344
2019-01-20T02:50:50.349Z,980.336
2019-01-20T02:52:49.689Z,980.321
2019-01-20T02:54:49.975Z,980.332
2019-01-20T02:56:50.560Z,980.323
2019-01-20T02:58:49.891Z,980.321
2019-01-20T03:00:50.294Z,980.307
2019-01-20T03:02:49.670Z,980.307
2019-01-20T03:04:49.684Z,980.310
2019-01-20T03:06:50.304Z,980.304
2019-01-20T03:08:50.156Z,980.291
2019-01-20T03:10:50.607Z,980.285
2019-01-20T03:12:50.038Z,980.281
2019-01-20T03:14:50.420Z,980.282
2019-01-20T03:16:50.066Z,980.282
2019-01-20T03:18:50.348Z,980.306
2019-01-20T03:20:49.749Z,980.319
2019-01-20T03:22:50.152Z,980.335
2019-01-20T03:24:50.411Z,980.301
2019-01-20T03:26:50.110Z,980.293
2019-01-20T03:28:50.467Z,980.279
2019-01-20T03:30:49.813Z,980.260
2019-01-20T03:32:50.337Z,980.270
2019-01-20T03:34:50.494Z,980.260
2019-01-20T03:36:50.222Z,980.256
2019-01-20T03:38:50.443Z,980.251
2019-01-20T03:40:49.875Z,980.262
2019-01-20T03:42:50.246Z,980.265
2019-01-20T03:44:50.427Z,980.253
2019-01-20T03:46:49.879Z,980.236
2019-01-20T03:48:50.162Z,980.242
2019-01-20T03:50:50.319Z,980.235
2019-01-20T03:52:50.635Z,980.235
2019-01-20T03:54:49.857Z,980.235
2019-01-20T03:56:50.375Z,980.231
2019-01-20T03:58:50.617Z,980.235
2019-01-20T04:00:49.795Z,980.220
2019-01-20T04:02:50.099Z,980.245
2019-01-20T04:04:49.895Z,980.258
2019-01-20T04:06:50.364Z,980.258
2019-01-20T04:08:50.539Z,980.258
2019-01-20T04:10:49.919Z,980.249
2019-01-20T04:12:50.264Z,980.246
2019-01-20T04:14:49.784Z,980.211
2019-01-20T04:16:50.483Z,980.217
2019-01-20T04:18:49.799Z,980.214
2019-01-20T04:20:50.221Z,980.246
2019-01-20T04:22:49.649Z,980.239
2019-01-20T04:24:50.121Z,980.220
2019-01-20T04:26:49.714Z,980.184
2019-01-20T04:28:50.024Z,980.175
2019-01-20T04:30:50.427Z,980.155
2019-01-20T04:32:49.673Z,980.143
2019-01-20T04:34:50.699Z,980.133
2019-01-20T04:36:50.342Z,980.133
2019-01-20T04:38:50.546Z,980.168
2019-01-20T04:40:49.927Z,980.173
2019-01-20T04:42:50.378Z,980.192
2019-01-20T04:44:49.710Z,980.189
2019-01-20T04:46:50.351Z,980.207
2019-01-20T04:48:49.669Z,980.205
2019-01-20T04:50:50.001Z,980.213
2019-01-20T04:52:50.411Z,980.218
2019-01-20T04:54:49.721Z,980.218
2019-01-20T04:56:50.370Z,980.244
2019-01-20T04:58:49.744Z,980.257
2019-01-20T05:00:50.162Z,980.279
2019-01-20T05:02:50.501Z,980.288
2019-01-20T05:04:50.421Z,980.320
2019-01-20T05:06:49.896Z,980.315
2019-01-20T05:08:50.220Z,980.315
2019-01-20T05:10:49.613Z,980.327
2019-01-20T05:12:49.938Z,980.323
2019-01-20T05:14:50.232Z,980.340
2019-01-20T05:16:49.873Z,980.361
2019-01-20T05:18:50.196Z,980.364
2019-01-20T05:20:50.565Z,980.360
2019-01-20T05:22:49.803Z,980.365
2019-01-20T05:24:50.218Z,980.379
2019-01-20T05:26:49.918Z,980.396
2019-01-20T05:28:50.369Z,980.408
2019-01-20T05:30:49.637Z,980.421
2019-01-20T05:32:50.039Z,980.423
2019-01-20T05:34:49.942Z,980.443
2019-01-20T05:36:50.619Z,980.446
2019-01-20T05:38:50.017Z,980.456
2019-01-20T05:40:50.210Z,980.457
2019-01-20T05:42:50.508Z,980.451
2019-01-20T05:44:49.897Z,980.447
2019-01-20T05:46:50.468Z,980.471
2019-01-20T05:48:49.867Z,980.479
2019-01-20T05:50:50.187Z,980.500
2019-01-20T05:52:50.470Z,980.514
2019-01-20T05:54:49.789Z,980.514
2019-01-20T05:56:50.229Z,980.525
2019-01-20T05:58:50.619Z,980.519
2019-01-20T06:00:50.128Z,980.532
2019-01-20T06:02:50.311Z,980.545
2019-01-20T06:04:50.246Z,980.557
2019-01-20T06:06:49.912Z,980.565
2019-01-20T06:08:50.361Z,980.577
2019-01-20T06:10:50.546Z,980.580
2019-01-20T06:12:54.742Z,980.610
2019-01-20T06:14:50.027Z,980.605
2019-01-20T06:16:50.565Z,980.643
2019-01-20T06:18:49.862Z,980.645
2019-01-20T06:20:50.196Z,980.645
2019-01-20T06:22:50.414Z,980.673
2019-01-20T06:24:50.584Z,980.676
2019-01-20T06:26:50.170Z,980.700
2019-01-20T06:28:50.367Z,980.701
2019-01-20T06:30:50.482Z,980.721
2019-01-20T06:32:49.831Z,980.736
2019-01-20T06:34:49.721Z,980.748
2019-01-20T06:36:49.723Z,980.748
2019-01-20T06:38:50.076Z,980.775
2019-01-20T06:40:50.544Z,980.820
2019-01-20T06:42:49.989Z,980.829
2019-01-20T06:44:50.188Z,980.847
2019-01-20T06:46:49.720Z,980.853
2019-01-20T06:48:50.033Z,980.871
2019-01-20T06:50:50.300Z,980.869
2019-01-20T06:52:50.596Z,980.861
2019-01-20T06:54:49.992Z,980.865
2019-01-20T06:56:50.570Z,980.881
2019-01-20T06:58:49.892Z,980.893
2019-01-20T07:00:50.227Z,980.898
2019-01-20T07:02:49.699Z,980.929
2019-01-20T07:04:49.748Z,980.942
2019-01-20T07:06:50.394Z,980.966
2019-01-20T07:08:49.693Z,980.976
2019-01-20T07:10:50.127Z,980.989
2019-01-20T07:12:49.717Z,981.010
2019-01-20T07:14:50.034Z,981.013
2019-01-20T07:16:49.737Z,981.022
2019-01-20T07:18:50.000Z,981.022
2019-01-20T07:20:50.203Z,981.033
2019-01-20T07:22:50.617Z,981.030
2019-01-20T07:24:49.832Z,981.048
2019-01-20T07:26:50.493Z,981.050
2019-01-20T07:28:49.858Z,981.089
2019-01-20T07:30:50.189Z,981.114
2019-01-20T07:32:50.512Z,981.131
2019-01-20T07:34:50.350Z,981.138
2019-01-20T07:36:49.879Z,981.138
2019-01-20T07:38:50.244Z,981.166
2019-01-20T07:40:49.637Z,981.182
2019-01-20T07:42:50.032Z,981.197
2019-01-20T07:44:50.430Z,981.197
2019-01-20T07:46:50.102Z,981.224
2019-01-20T07:48:50.459Z,981.269
2019-01-20T07:50:49.869Z,981.318
2019-01-20T07:52:50.220Z,981.342
2019-01-20T07:54:50.564Z,981.384
2019-01-20T07:56:50.214Z,981.396
2019-01-20T07:58:50.542Z,981.398
2019-01-20T08:00:49.959Z,981.405
2019-01-20T08:02:50.312Z,981.436
2019-01-20T08:04:50.197Z,981.444
2019-01-20T08:06:49.803Z,981.471
2019-01-20T08:08:50.112Z,981.493
2019-01-20T08:10:50.362Z,981.503
2019-01-20T08:12:49.739Z,981.526
2019-01-20T08:14:50.113Z,981.530
2019-01-20T08:16:50.591Z,981.537
2019-01-20T08:18:49.923Z,981.533
2019-01-20T08:20:50.365Z,981.553
2019-01-20T08:22:49.767Z,981.583
2019-01-20T08:24:50.233Z,981.606
2019-01-20T08:26:49.778Z,981.632
2019-01-20T08:28:50.185Z,981.657
2019-01-20T08:30:50.530Z,981.685
2019-01-20T08:32:49.918Z,981.727
2019-01-20T08:34:49.963Z,981.750
2019-01-20T08:36:49.633Z,981.773
2019-01-20T08:38:49.886Z,981.781
2019-01-20T08:40:50.228Z,981.795
2019-01-20T08:42:50.427Z,981.814
2019-01-20T08:44:50.562Z,981.814
2019-01-20T08:46:50.233Z,981.848
2019-01-20T08:48:50.469Z,981.858
2019-01-20T08:50:50.647Z,981.850
2019-01-20T08:52:49.811Z,981.835
2019-01-20T08:54:50.080Z,981.847
2019-01-20T08:56:50.489Z,981.855
2019-01-20T08:58:49.694Z,981.892
2019-01-20T09:00:49.995Z,981.906
2019-01-20T09:02:50.292Z,981.906
2019-01-20T09:06:50.409Z,981.936
2019-01-20T09:08:49.853Z,981.947
2019-01-20T09:10:50.129Z,981.954
2019-01-20T09:12:50.350Z,981.995
2019-01-20T09:14:49.694Z,982.006
2019-01-20T09:16:50.309Z,982.015
2019-01-20T09:18:49.655Z,982.039
2019-01-20T09:20:49.945Z,982.044
2019-01-20T09:22:50.296Z,982.038
2019-01-20T09:24:50.554Z,982.040
2019-01-20T09:26:49.946Z,982.060
2019-01-20T09:28:50.264Z,982.072
2019-01-20T09:30:50.591Z,982.090
2019-01-20T09:32:49.776Z,982.126
2019-01-20T09:34:49.814Z,982.118
2019-01-20T09:36:50.375Z,982.152
2019-01-20T09:38:49.777Z,982.148
2019-01-20T09:40:50.001Z,982.158
2019-01-20T09:42:50.283Z,982.166
2019-01-20T09:44:49.678Z,982.154
2019-01-20T09:46:50.334Z,982.176
2019-01-20T09:48:49.753Z,982.175
2019-01-20T09:50:50.175Z,982.194
2019-01-20T09:52:50.470Z,982.195
2019-01-20T09:54:49.776Z,982.173
2019-01-20T09:56:50.328Z,982.173
2019-01-20T09:58:49.638Z,982.187
2019-01-20T10:00:49.927Z,982.184
2019-01-20T10:02:50.247Z,982.161
2019-01-20T10:04:50.374Z,982.144
2019-01-20T10:06:49.974Z,982.155
2019-01-20T10:08:50.186Z,982.153
2019-01-20T10:10:50.544Z,982.161
2019-01-20T10:12:49.933Z,982.159
2019-01-20T10:14:50.263Z,982.154
2019-01-20T10:16:49.813Z,982.151
2019-01-20T10:18:50.145Z,982.143
2019-01-20T10:20:50.399Z,982.149
2019-01-20T10:22:49.752Z,982.135
2019-01-20T10:24:50.160Z,982.115
2019-01-20T10:26:49.807Z,982.114
2019-01-20T10:28:50.306Z,982.107
2019-01-20T10:30:50.502Z,982.083
2019-01-20T10:32:49.795Z,982.083
2019-01-20T10:34:49.758Z,982.078
2019-01-20T10:36:50.424Z,982.073
2019-01-20T10:38:49.796Z,982.068
2019-01-20T10:40:50.113Z,982.084
2019-01-20T10:42:50.510Z,982.077
2019-01-20T10:44:50.069Z,982.032
2019-01-20T10:46:49.794Z,982.025
2019-01-20T10:48:50.312Z,982.011
2019-01-20T10:50:49.814Z,982.018
2019-01-20T10:52:50.394Z,982.004
2019-01-20T10:54:49.979Z,982.009
2019-01-20T10:56:49.659Z,982.012
2019-01-20T10:58:50.123Z,982.003
2019-01-20T11:00:49.678Z,981.994
2019-01-20T11:02:50.167Z,981.994
2019-01-20T11:04:50.192Z,981.973
2019-01-20T11:06:49.794Z,981.983
2019-01-20T11:08:50.329Z,981.962
2019-01-20T11:10:49.788Z,981.951
2019-01-20T11:12:50.158Z,981.955
2019-01-20T11:14:50.544Z,981.941
2019-01-20T11:16:50.270Z,981.957
2019-01-20T11:18:50.604Z,981.965
2019-01-20T11:20:50.087Z,981.966
2019-01-20T11:22:50.591Z,981.964
2019-01-20T11:24:50.126Z,981.978
2019-01-20T11:26:50.342Z,981.968
2019-01-20T11:28:50.506Z,981.973
2019-01-20T11:30:50.787Z,981.983
2019-01-20T11:32:49.892Z,981.989
2019-01-20T11:34:50.332Z,981.996
2019-01-20T11:36:50.400Z,981.985
2019-01-20T11:38:50.089Z,981.950
2019-01-20T11:40:50.441Z,981.950
2019-01-20T11:42:50.083Z,981.959
2019-01-20T11:44:49.727Z,981.976
2019-01-20T11:46:50.188Z,981.952
2019-01-20T11:48:50.618Z,981.939
2019-01-20T11:50:50.255Z,981.975
2019-01-20T11:52:49.880Z,981.975
2019-01-20T11:54:50.209Z,981.988
2019-01-20T11:56:50.758Z,981.979
2019-01-20T11:58:50.162Z,981.958
2019-01-20T12:00:50.438Z,981.951
2019-01-20T12:02:49.904Z,981.913
2019-01-20T12:04:49.824Z,981.891
2019-01-20T12:06:50.032Z,981.888
2019-01-20T12:08:50.234Z,981.893
2019-01-20T12:10:50.039Z,981.895
2019-01-20T12:12:50.607Z,981.875
2019-01-20T12:14:50.072Z,981.863
2019-01-20T12:16:50.302Z,981.912
2019-01-20T12:18:50.712Z,981.914
2019-01-20T12:20:50.056Z,981.902
2019-01-20T12:22:50.497Z,981.912
2019-01-20T12:24:50.089Z,981.922
2019-01-20T12:26:50.418Z,981.938
2019-01-20T12:28:49.929Z,981.941
2019-01-20T12:30:50.358Z,981.941
2019-01-20T12:32:49.960Z,981.909
2019-01-20T12:34:49.630Z,981.907
2019-01-20T12:36:49.890Z,981.923
2019-01-20T12:38:50.300Z,981.912
2019-01-20T12:40:50.544Z,981.925
2019-01-20T12:42:49.951Z,981.920
2019-01-20T12:44:50.536Z,981.927
2019-01-20T12:46:49.856Z,981.942
2019-01-20T12:48:50.153Z,981.945
2019-01-20T12:50:50.487Z,982.005
2019-01-20T12:52:50.106Z,982.014
2019-01-20T12:54:50.563Z,982.024
2019-01-20T12:56:50.494Z,982.031
2019-01-20T12:58:49.737Z,982.032
2019-01-20T13:00:50.139Z,982.032
2019-01-20T13:02:50.129Z,982.018
2019-01-20T13:04:50.507Z,982.013
2019-01-20T13:06:50.386Z,982.030
2019-01-20T13:08:49.940Z,982.028
2019-01-20T13:10:49.959Z,982.060
2019-01-20T13:12:50.547Z,982.056
2019-01-20T13:14:49.707Z,982.042
2019-01-20T13:16:50.550Z,981.987
2019-01-20T13:18:50.458Z,981.979
2019-01-20T13:20:50.510Z,981.953
2019-01-20T13:22:49.712Z,981.949
2019-01-20T13:24:50.016Z,981.941
2019-01-20T13:26:49.880Z,981.937
2019-01-20T13:28:50.597Z,981.890
2019-01-20T13:30:50.554Z,981.905
2019-01-20T13:32:50.064Z,981.913
2019-01-20T13:34:49.765Z,981.914
2019-01-20T13:36:50.093Z,981.907
2019-01-20T13:38:50.360Z,981.927
2019-01-20T13:40:49.886Z,981.916
2019-01-20T13:42:50.455Z,981.934
2019-01-20T13:44:49.887Z,981.939
2019-01-20T13:46:49.805Z,981.936
2019-01-20T13:48:49.888Z,981.938
2019-01-20T13:50:50.187Z,981.934
2019-01-20T13:52:50.617Z,981.921
2019-01-20T13:54:50.010Z,981.918
2019-01-20T13:56:50.205Z,981.922
2019-01-20T13:58:50.411Z,981.917
2019-01-20T14:00:50.616Z,981.930
2019-01-20T14:02:50.269Z,981.957
2019-01-20T14:04:50.219Z,981.953
2019-01-20T14:06:50.258Z,981.971
2019-01-20T14:08:49.849Z,981.963
2019-01-20T14:10:50.098Z,981.951
2019-01-20T14:12:50.479Z,981.992
2019-01-20T14:14:54.361Z,982.013
2019-01-20T14:16:50.251Z,982.064
2019-01-20T14:18:50.533Z,982.096
2019-01-20T14:20:50.548Z,982.137
2019-01-20T14:22:50.670Z,982.147
2019-01-20T14:24:49.790Z,982.154
2019-01-20T14:26:50.715Z,982.182
2019-01-20T14:28:49.814Z,982.210
2019-01-20T14:30:50.227Z,982.242
2019-01-20T14:32:50.645Z,982.236
2019-01-20T14:34:50.097Z,982.231
2019-01-20T14:36:49.941Z,982.231
2019-01-20T14:38:49.984Z,982.259
2019-01-20T14:40:50.227Z,982.261
2019-01-20T14:42:50.468Z,982.279
2019-01-20T14:44:50.477Z,982.300
2019-01-20T14:46:50.377Z,982.308
2019-01-20T14:48:50.314Z,982.325
2019-01-20T14:50:50.475Z,982.325
2019-01-20T14:52:50.106Z,982.324
2019-01-20T14:54:50.169Z,982.343
2019-01-20T14:56:49.843Z,982.399
2019-01-20T14:58:50.013Z,982.410
2019-01-20T15:00:50.309Z,982.429
2019-01-20T15:02:50.488Z,982.442
2019-01-20T15:04:49.917Z,982.467
2019-01-20T15:06:49.810Z,982.491
2019-01-20T15:08:50.218Z,982.505
2019-01-20T15:10:50.330Z,982.514
2019-01-20T15:12:50.656Z,982.513
2019-01-20T15:14:49.904Z,982.539
2019-01-20T15:16:49.904Z,982.539
2019-01-20T15:18:49.948Z,982.564
2019-01-20T15:20:50.321Z,982.571
2019-01-20T15:22:50.563Z,982.596
2019-01-20T15:24:49.719Z,982.607
2019-01-20T15:26:50.474Z,982.629
2019-01-20T15:28:50.395Z,982.642
2019-01-20T15:30:50.213Z,982.649
2019-01-20T15:32:50.565Z,982.685
2019-01-20T15:34:49.985Z,982.705
2019-01-20T15:36:50.598Z,982.734
2019-01-20T15:38:49.781Z,982.781
2019-01-20T15:40:49.943Z,982.808
2019-01-20T15:42:50.258Z,982.822
2019-01-20T15:44:50.189Z,982.835
2019-01-20T15:46:50.058Z,982.886
2019-01-20T15:48:50.093Z,982.896
2019-01-20T15:50:50.142Z,982.932
2019-01-20T15:52:50.103Z,982.932
2019-01-20T15:54:50.163Z,982.964
2019-01-20T15:56:49.917Z,982.962
2019-01-20T15:58:50.170Z,982.983
2019-01-20T16:00:50.225Z,983.018
2019-01-20T16:02:50.336Z,983.033
2019-01-20T16:04:49.729Z,983.045
2019-01-20T16:06:49.754Z,983.054
2019-01-20T16:08:50.639Z,983.080
2019-01-20T16:10:50.235Z,983.098
2019-01-20T16:12:50.556Z,983.111
2019-01-20T16:14:50.589Z,983.121
2019-01-20T16:16:50.430Z,983.127
2019-01-20T16:18:50.474Z,983.135
2019-01-20T16:20:50.582Z,983.153
2019-01-20T16:22:49.652Z,983.159
2019-01-20T16:24:50.710Z,983.166
2019-01-20T16:26:50.418Z,983.210
2019-01-20T16:28:50.329Z,983.221
2019-01-20T16:30:50.455Z,983.256
2019-01-20T16:32:50.775Z,983.271
2019-01-20T16:34:50.221Z,983.293
2019-01-20T16:36:49.804Z,983.293
2019-01-20T16:38:49.739Z,983.353
2019-01-20T16:40:50.506Z,983.367
2019-01-20T16:42:49.650Z,983.370
2019-01-20T16:44:50.576Z,983.391
2019-01-20T16:46:50.256Z,983.411
2019-01-20T16:48:50.347Z,983.422
2019-01-20T16:50:50.398Z,983.425
2019-01-20T16:52:55.007Z,983.440
2019-01-20T16:54:49.890Z,983.435
2019-01-20T16:56:50.642Z,983.439
2019-01-20T16:58:51.707Z,983.458
2019-01-20T17:00:49.820Z,983.496
2019-01-20T17:02:50.278Z,983.512
2019-01-20T17:04:49.885Z,983.535
2019-01-20T17:06:49.734Z,983.538
2019-01-20T17:08:49.771Z,983.576
2019-01-20T17:10:49.843Z,983.577
2019-01-20T17:12:50.161Z,983.612
2019-01-20T17:14:50.209Z,983.644
2019-01-20T17:16:50.060Z,983.668
2019-01-20T17:18:50.325Z,983.717
2019-01-20T17:20:50.453Z,983.741
2019-01-20T17:22:50.609Z,983.743
2019-01-20T17:24:49.706Z,983.763
2019-01-20T17:26:50.641Z,983.784
2019-01-20T17:28:50.645Z,983.811
2019-01-20T17:30:49.908Z,983.811
2019-01-20T17:32:50.213Z,983.876
2019-01-20T17:34:50.647Z,983.887
2019-01-20T17:36:50.391Z,983.927
2019-01-20T17:38:50.498Z,983.950
2019-01-20T17:40:50.733Z,983.969
2019-01-20T17:42:50.130Z,983.969
2019-01-20T17:44:50.406Z,984.027
2019-01-20T17:46:50.415Z,984.068
2019-01-20T17:48:50.316Z,984.075
2019-01-20T17:50:50.144Z,984.100
2019-01-20T17:52:50.282Z,984.104
2019-01-20T17:54:50.167Z,984.134
2019-01-20T17:56:49.999Z,984.139
2019-01-20T17:58:50.009Z,984.155
2019-01-20T18:00:50.454Z,984.151
2019-01-20T18:02:49.762Z,984.149
2019-01-20T18:04:50.306Z,984.180
2019-01-20T18:06:50.139Z,984.193
2019-01-20T18:08:50.173Z,984.194
2019-01-20T18:10:50.240Z,984.196
2019-01-20T18:12:50.483Z,984.204
2019-01-20T18:14:50.738Z,984.226
2019-01-20T18:16:49.777Z,984.239
2019-01-20T18:18:50.055Z,984.241
2019-01-20T18:20:50.225Z,984.249
2019-01-20T18:22:50.523Z,984.245
2019-01-20T18:24:49.760Z,984.277
2019-01-20T18:26:50.611Z,984.292
2019-01-20T18:28:49.701Z,984.308
2019-01-20T18:30:49.893Z,984.316
2019-01-20T18:32:49.924Z,984.371
2019-01-20T18:34:50.414Z,984.403
2019-01-20T18:36:50.263Z,984.427
2019-01-20T18:38:50.407Z,984.442
2019-01-20T18:40:50.372Z,984.463
2019-01-20T18:42:50.344Z,984.474
2019-01-20T18:44:50.380Z,984.483
2019-01-20T18:46:49.930Z,984.487
2019-01-20T18:48:50.060Z,984.497
2019-01-20T18:50:50.265Z,984.530
2019-01-20T18:52:50.496Z,984.530
2019-01-20T18:54:50.308Z,984.534
2019-01-20T18:56:49.891Z,984.534
2019-01-20T18:58:49.674Z,984.545
2019-01-20T19:00:50.541Z,984.546
2019-01-20T19:02:49.794Z,984.558
2019-01-20T19:04:50.256Z,984.571
2019-01-20T19:06:49.810Z,984.571
2019-01-20T19:08:49.992Z,984.619
2019-01-20T19:10:49.932Z,984.633
2019-01-20T19:12:49.962Z,984.661
2019-01-20T19:14:49.894Z,984.676
2019-01-20T19:16:50.664Z,984.692
2019-01-20T19:18:49.682Z,984.708
2019-01-20T19:20:50.767Z,984.749
2019-01-20T19:22:49.949Z,984.778
2019-01-20T19:24:50.043Z,984.826
2019-01-20T19:26:49.767Z,984.850
2019-01-20T19:28:49.805Z,984.869
2019-01-20T19:30:49.997Z,984.886
2019-01-20T19:32:50.199Z,984.888
2019-01-20T19:34:49.900Z,984.899
2019-01-20T19:36:49.856Z,984.945
2019-01-20T19:38:50.257Z,984.949
2019-01-20T19:40:50.215Z,984.952
2019-01-20T19:42:50.441Z,984.949
2019-01-20T19:44:50.377Z,984.958
2019-01-20T19:46:50.244Z,984.952
2019-01-20T19:48:50.192Z,984.983
2019-01-20T19:50:50.511Z,984.971
2019-01-20T19:52:50.818Z,984.986
2019-01-20T19:54:50.157Z,984.991
2019-01-20T19:56:49.908Z,984.995
2019-01-20T19:58:49.928Z,985.006
2019-01-20T20:00:50.287Z,985.015
2019-01-20T20:02:50.546Z,985.023
2019-01-20T20:04:50.222Z,985.062
2019-01-20T20:06:50.067Z,985.065
2019-01-20T20:08:50.221Z,985.088
2019-01-20T20:10:49.943Z,985.091
2019-01-20T20:12:50.282Z,985.123
2019-01-20T20:14:50.408Z,985.135
2019-01-20T20:16:50.203Z,985.158
2019-01-20T20:18:50.105Z,985.180
2019-01-20T20:20:50.251Z,985.217
2019-01-20T20:22:50.359Z,985.239
2019-01-20T20:24:50.522Z,985.239
2019-01-20T20:26:50.414Z,985.266
2019-01-20T20:28:50.468Z,985.289
2019-01-20T20:30:50.448Z,985.297
2019-01-20T20:32:50.257Z,985.312
2019-01-20T20:34:54.103Z,985.347
2019-01-20T20:36:49.868Z,985.347
2019-01-20T20:38:49.900Z,985.364
2019-01-20T20:40:49.939Z,985.392
2019-01-20T20:42:50.078Z,985.406
2019-01-20T20:44:50.064Z,985.421
2019-01-20T20:46:50.608Z,985.434
2019-01-20T20:48:50.673Z,985.458
2019-01-20T20:50:49.932Z,985.458
2019-01-20T20:52:50.277Z,985.482
2019-01-20T20:54:50.429Z,985.513
2019-01-20T20:56:50.222Z,985.510
2019-01-20T20:58:50.231Z,985.550
2019-01-20T21:00:50.254Z,985.559
2019-01-20T21:02:50.722Z,985.559
2019-01-20T21:04:50.529Z,985.602
2019-01-20T21:06:50.535Z,985.617
2019-01-20T21:08:49.807Z,985.654
2019-01-20T21:10:50.025Z,985.666
2019-01-20T21:12:50.156Z,985.677
2019-01-20T21:14:50.224Z,985.714
2019-01-20T21:16:50.015Z,985.725
2019-01-20T21:18:50.190Z,985.756
2019-01-20T21:20:50.507Z,985.769
2019-01-20T21:22:50.728Z,985.769
2019-01-20T21:24:49.950Z,985.816
2019-01-20T21:26:49.901Z,985.831
2019-01-20T21:28:49.799Z,985.831
2019-01-20T21:30:50.645Z,985.855
2019-01-20T21:32:49.811Z,985.853
2019-01-20T21:34:50.134Z,985.843
2019-01-20T21:36:49.931Z,985.837
2019-01-20T21:38:49.932Z,985.826
2019-01-20T21:40:50.164Z,985.811
2019-01-20T21:42:50.129Z,985.809
2019-01-20T21:44:50.092Z,985.814
2019-01-20T21:46:50.505Z,985.815
2019-01-20T21:48:50.210Z,985.827
2019-01-20T21:50:50.056Z,985.808
2019-01-20T21:52:50.190Z,985.838
2019-01-20T21:54:50.220Z,985.889
2019-01-20T21:56:49.899Z,985.900
2019-01-20T21:58:50.289Z,985.938
2019-01-20T22:00:49.692Z,985.961
2019-01-20T22:02:49.891Z,985.988
2019-01-20T22:04:50.178Z,986.045
2019-01-20T22:06:50.121Z,986.052
2019-01-20T22:08:50.138Z,986.062
2019-01-20T22:10:50.237Z,986.090
2019-01-20T22:12:50.185Z,986.120
2019-01-20T22:14:50.260Z,986.135
2019-01-20T22:16:53.297Z,986.159
2019-01-20T22:18:50.477Z,986.159
2019-01-20T22:20:50.117Z,986.167
2019-01-20T22:22:50.265Z,986.213
2019-01-20T22:24:50.353Z,986.210
2019-01-20T22:26:50.243Z,986.215
2019-01-20T22:28:50.325Z,986.204
2019-01-20T22:30:50.305Z,986.202
2019-01-20T22:32:50.413Z,986.217
2019-01-20T22:34:49.944Z,986.212
2019-01-20T22:36:49.982Z,986.222
2019-01-20T22:38:50.205Z,986.231
2019-01-20T22:40:50.529Z,986.240
2019-01-20T22:42:50.679Z,986.224
2019-01-20T22:44:49.814Z,986.218
2019-01-20T22:46:49.760Z,986.218
2019-01-20T22:48:49.863Z,986.272
2019-01-20T22:50:50.179Z,986.281
2019-01-20T22:52:50.262Z,986.300
2019-01-20T22:54:50.664Z,986.313
2019-01-20T22:56:49.612Z,986.323
2019-01-20T22:58:49.660Z,986.331
2019-01-20T23:00:49.885Z,986.338
2019-01-20T23:02:50.156Z,986.341
2019-01-20T23:04:49.798Z,986.339
2019-01-20T23:06:49.898Z,986.336
2019-01-20T23:08:49.948Z,986.323
2019-01-20T23:10:50.227Z,986.324
2019-01-20T23:12:50.284Z,986.296
2019-01-20T23:14:50.294Z,986.287
2019-01-20T23:16:50.139Z,986.283
2019-01-20T23:18:50.275Z,986.276
2019-01-20T23:20:50.412Z,986.255
2019-01-20T23:22:50.519Z,986.240
2019-01-20T23:24:49.706Z,986.241
2019-01-20T23:26:49.855Z,986.230
2019-01-20T23:28:50.014Z,986.242
2019-01-20T23:30:50.318Z,986.245
2019-01-20T23:32:50.660Z,986.245
2019-01-20T23:34:50.130Z,986.238
2019-01-20T23:36:49.889Z,986.236
2019-01-20T23:38:50.022Z,986.213
2019-01-20T23:40:50.303Z,986.202
2019-01-20T23:42:50.516Z,986.204
2019-01-20T23:44:50.070Z,986.205
2019-01-20T23:46:50.094Z,986.213
2019-01-20T23:48:49.907Z,986.213
2019-01-20T23:50:50.313Z,986.233
2019-01-20T23:52:50.680Z,986.204
2019-01-20T23:54:49.831Z,986.204
2019-01-20T23:56:50.702Z,986.199
2019-01-20T23:58:50.194Z,986.215
